createdAt,value
2022-09-23T00:00:35.977Z,9.57
2022-09-23T00:03:02.465Z,10.32
2022-09-23T00:05:30.387Z,9.75
2022-09-23T00:07:57.766Z,9.00
2022-09-23T00:10:28.043Z,9.85
2022-09-23T00:12:55.854Z,10.63
2022-09-23T00:15:23.083Z,9.27
2022-09-23T00:17:49.399Z,10.45
2022-09-23T00:20:15.741Z,9.90
2022-09-23T00:22:42.077Z,9.95
2022-09-23T00:25:09.552Z,9.18
2022-09-23T00:27:36.591Z,9.32
2022-09-23T00:30:05.916Z,8.35
2022-09-23T00:32:32.256Z,7.75
2022-09-23T00:34:58.738Z,8.15
2022-09-23T00:37:25.260Z,8.32
2022-09-23T00:39:51.604Z,7.88
2022-09-23T00:42:21.516Z,8.15
2022-09-23T00:44:52.494Z,8.30
2022-09-23T00:47:30.894Z,8.18
2022-09-23T00:50:09.165Z,8.20
2022-09-23T00:52:36.637Z,7.40
2022-09-23T00:55:09.339Z,8.07
2022-09-23T00:57:38.245Z,8.15
2022-09-23T01:00:06.850Z,7.88
2022-09-23T01:02:33.883Z,7.38
2022-09-23T01:05:03.189Z,6.95
2022-09-23T01:07:30.076Z,7.32
2022-09-23T01:09:59.189Z,7.72
2022-09-23T01:12:49.763Z,7.15
2022-09-23T01:15:38.028Z,7.35
2022-09-23T01:18:43.359Z,7.25
2022-09-23T01:21:24.868Z,8.00
2022-09-23T01:26:58.992Z,8.27
2022-09-23T01:30:10.697Z,7.22
2022-09-23T01:32:52.345Z,6.72
2022-09-23T01:35:30.343Z,6.68
2022-09-23T01:38:15.181Z,6.15
2022-09-23T01:40:51.981Z,6.68
2022-09-23T01:43:35.554Z,6.07
2022-09-23T01:46:07.376Z,6.45
2022-09-23T01:48:46.528Z,6.63
2022-09-23T01:51:23.836Z,6.30
2022-09-23T01:54:18.261Z,6.40
2022-09-23T01:56:58.689Z,7.45
2022-09-23T01:59:35.687Z,6.55
2022-09-23T02:02:15.281Z,7.22
2022-09-23T02:04:47.981Z,6.65
2022-09-23T02:07:22.332Z,6.43
2022-09-23T02:09:57.354Z,6.30
2022-09-23T02:12:29.309Z,6.55
2022-09-23T02:15:04.146Z,6.28
2022-09-23T02:17:38.330Z,6.07
2022-09-23T02:20:06.825Z,6.45
2022-09-23T02:22:40.549Z,6.65
2022-09-23T02:25:09.713Z,6.28
2022-09-23T02:27:59.658Z,6.70
2022-09-23T02:30:36.298Z,6.25
2022-09-23T02:33:11.696Z,7.35
2022-09-23T02:36:05.513Z,6.25
2022-09-23T02:38:36.443Z,6.75
2022-09-23T02:41:29.918Z,7.22
2022-09-23T02:44:06.194Z,6.93
2022-09-23T02:46:34.089Z,7.35
2022-09-23T02:49:15.101Z,7.50
2022-09-23T02:51:41.611Z,7.95
2022-09-23T02:54:14.912Z,6.70
2022-09-23T02:56:41.702Z,7.03
2022-09-23T02:59:09.618Z,7.18
2022-09-23T03:02:04.905Z,7.85
2022-09-23T03:05:00.127Z,6.47
2022-09-23T03:07:42.676Z,6.28
2022-09-23T03:10:22.895Z,6.32
2022-09-23T03:13:28.671Z,7.00
2022-09-23T03:16:10.407Z,6.75
2022-09-23T03:18:52.211Z,7.45
2022-09-23T03:21:41.022Z,8.30
2022-09-23T03:24:10.751Z,8.93
2022-09-23T03:26:40.144Z,9.13
2022-09-23T03:29:10.096Z,8.40
2022-09-23T03:31:39.949Z,7.40
2022-09-23T03:34:16.331Z,10.23
2022-09-23T03:36:57.342Z,10.00
2022-09-23T03:39:31.329Z,9.38
2022-09-23T03:42:03.354Z,8.98
2022-09-23T03:44:30.166Z,9.40
2022-09-23T03:47:02.258Z,8.52
2022-09-23T03:49:33.304Z,8.23
2022-09-23T03:52:00.140Z,8.50
2022-09-23T03:54:27.893Z,8.07
2022-09-23T03:56:57.546Z,7.80
2022-09-23T03:59:24.810Z,7.07
2022-09-23T04:01:51.712Z,7.38
2022-09-23T04:04:18.280Z,7.55
2022-09-23T04:06:44.966Z,7.25
2022-09-23T04:09:11.473Z,6.97
2022-09-23T04:11:38.051Z,7.90
2022-09-23T04:14:05.510Z,8.40
2022-09-23T04:16:32.094Z,7.75
2022-09-23T04:18:58.747Z,7.53
2022-09-23T04:21:25.373Z,7.65
2022-09-23T04:23:51.990Z,7.35
2022-09-23T04:26:19.068Z,7.20
2022-09-23T04:28:45.389Z,6.88
2022-09-23T04:31:11.833Z,7.60
2022-09-23T04:33:38.265Z,7.78
2022-09-23T04:36:04.733Z,10.07
2022-09-23T04:38:31.265Z,13.05
2022-09-23T04:40:57.711Z,8.18
2022-09-23T04:43:24.300Z,9.98
2022-09-23T04:46:01.506Z,8.40
2022-09-23T04:48:29.026Z,8.20
2022-09-23T04:51:03.099Z,8.25
2022-09-23T04:53:29.538Z,6.85
2022-09-23T04:56:02.127Z,7.22
2022-09-23T04:58:29.038Z,7.50
2022-09-23T05:00:55.871Z,9.48
2022-09-23T05:03:23.824Z,12.48
2022-09-23T05:05:50.793Z,11.25
2022-09-23T05:08:17.246Z,11.38
2022-09-23T05:10:43.557Z,10.98
2022-09-23T05:13:09.922Z,10.27
2022-09-23T05:15:36.236Z,12.80
2022-09-23T05:18:02.587Z,48.45
2022-09-23T05:20:28.900Z,52.03
2022-09-23T05:22:56.063Z,107.80
2022-09-23T05:25:25.390Z,152.57
2022-09-23T05:27:52.308Z,90.85
2022-09-23T05:30:18.625Z,100.97
2022-09-23T05:32:45.524Z,80.57
2022-09-23T05:35:11.929Z,43.83
2022-09-23T05:37:38.278Z,34.08
2022-09-23T05:40:05.401Z,38.58
2022-09-23T05:42:31.897Z,38.75
2022-09-23T05:44:58.254Z,39.38
2022-09-23T05:47:24.605Z,34.78
2022-09-23T05:49:59.722Z,33.05
2022-09-23T05:52:27.465Z,27.13
2022-09-23T05:54:53.856Z,22.00
2022-09-23T05:57:21.345Z,20.80
2022-09-23T05:59:47.726Z,18.38
2022-09-23T06:02:15.098Z,16.33
2022-09-23T06:04:41.623Z,17.05
2022-09-23T06:07:08.610Z,16.00
2022-09-23T06:09:36.789Z,18.30
2022-09-23T06:12:04.820Z,18.63
2022-09-23T06:14:31.204Z,18.48
2022-09-23T06:16:57.536Z,18.92
2022-09-23T06:19:23.925Z,15.02
2022-09-23T06:21:50.289Z,12.82
2022-09-23T06:24:19.982Z,11.18
2022-09-23T06:26:49.019Z,11.57
2022-09-23T06:29:15.377Z,11.23
2022-09-23T06:31:41.990Z,10.30
2022-09-23T06:34:14.185Z,9.70
2022-09-23T06:36:44.843Z,10.45
2022-09-23T06:41:39.649Z,10.00
2022-09-23T06:44:13.727Z,9.85
2022-09-23T06:46:40.246Z,10.88
2022-09-23T06:49:06.821Z,10.80
2022-09-23T06:51:33.715Z,11.25
2022-09-23T06:54:00.174Z,11.27
2022-09-23T06:56:26.664Z,11.68
2022-09-23T06:58:53.282Z,11.38
2022-09-23T07:01:20.083Z,11.70
2022-09-23T07:03:50.020Z,11.30
2022-09-23T07:06:17.132Z,11.40
2022-09-23T07:08:46.735Z,12.02
2022-09-23T07:11:13.776Z,11.98
2022-09-23T07:13:42.029Z,10.88
2022-09-23T07:16:09.838Z,10.98
2022-09-23T07:18:37.526Z,11.18
2022-09-23T07:21:15.425Z,11.82
2022-09-23T07:23:47.002Z,10.93
2022-09-23T07:26:14.861Z,10.95
2022-09-23T07:28:41.337Z,11.80
2022-09-23T07:31:13.803Z,11.60
2022-09-23T07:33:44.124Z,11.70
2022-09-23T07:36:13.859Z,11.88
2022-09-23T07:38:45.209Z,11.88
2022-09-23T07:41:14.642Z,10.85
2022-09-23T07:43:41.227Z,10.00
2022-09-23T07:46:16.204Z,10.02
2022-09-23T07:48:43.690Z,10.85
2022-09-23T07:51:12.822Z,9.80
2022-09-23T07:53:39.521Z,10.07
2022-09-23T07:56:06.572Z,10.23
2022-09-23T07:58:34.360Z,10.00
2022-09-23T08:01:06.034Z,9.82
2022-09-23T08:03:32.774Z,9.52
2022-09-23T08:06:11.882Z,9.55
2022-09-23T08:08:40.598Z,9.80
2022-09-23T08:11:10.150Z,9.75
2022-09-23T08:13:37.067Z,8.88
2022-09-23T08:16:04.423Z,8.95
2022-09-23T08:18:30.928Z,9.43
2022-09-23T08:20:57.287Z,9.25
2022-09-23T08:23:23.786Z,9.13
2022-09-23T08:25:59.501Z,8.80
2022-09-23T08:28:26.797Z,9.10
2022-09-23T08:30:53.160Z,9.45
2022-09-23T08:33:23.340Z,8.77
2022-09-23T08:35:50.329Z,9.40
2022-09-23T08:38:16.689Z,9.07
2022-09-23T08:40:47.352Z,9.38
2022-09-23T08:43:34.662Z,8.40
2022-09-23T08:46:05.185Z,8.48
2022-09-23T08:48:38.494Z,8.32
2022-09-23T08:51:10.840Z,7.55
2022-09-23T08:53:37.715Z,7.30
2022-09-23T08:56:10.744Z,7.90
2022-09-23T08:58:47.239Z,7.57
2022-09-23T09:01:26.173Z,7.57
2022-09-23T09:03:58.415Z,7.72
2022-09-23T09:06:27.766Z,7.88
2022-09-23T09:08:59.022Z,7.45
2022-09-23T09:14:05.780Z,7.00
2022-09-23T09:16:59.864Z,7.20
2022-09-23T09:19:55.368Z,7.43
2022-09-23T09:22:28.227Z,7.05
2022-09-23T09:25:02.712Z,6.82
2022-09-23T09:27:29.366Z,6.40
2022-09-23T09:29:56.763Z,6.47
2022-09-23T09:32:38.354Z,6.57
2022-09-23T09:35:23.820Z,6.53
2022-09-23T09:37:50.356Z,6.82
2022-09-23T09:40:17.271Z,7.00
2022-09-23T09:42:47.803Z,6.57
2022-09-23T09:45:14.104Z,5.87
2022-09-23T09:47:46.482Z,6.32
2022-09-23T09:50:20.526Z,6.50
2022-09-23T09:52:48.352Z,6.82
2022-09-23T09:55:14.658Z,7.13
2022-09-23T09:57:45.213Z,7.20
2022-09-23T10:00:35.934Z,6.97
2022-09-23T10:03:14.409Z,7.50
2022-09-23T10:05:43.747Z,6.97
2022-09-23T10:08:32.303Z,7.80
2022-09-23T10:10:58.612Z,6.90
2022-09-23T10:13:29.298Z,7.18
2022-09-23T10:15:57.871Z,7.32
2022-09-23T10:18:31.929Z,7.30
2022-09-23T10:21:17.078Z,7.25
2022-09-23T10:23:58.230Z,7.53
2022-09-23T10:26:32.678Z,8.82
2022-09-23T10:29:03.270Z,7.55
2022-09-23T10:31:32.231Z,8.30
2022-09-23T10:34:27.485Z,7.88
2022-09-23T10:37:03.141Z,7.65
2022-09-23T10:39:48.067Z,8.50
2022-09-23T10:43:08.446Z,8.50
2022-09-23T10:45:57.838Z,8.05
2022-09-23T10:48:51.853Z,8.93
2022-09-23T10:51:40.373Z,8.82
2022-09-23T10:54:28.042Z,8.60
2022-09-23T10:57:01.314Z,9.27
2022-09-23T10:59:43.497Z,8.88
2022-09-23T11:02:34.509Z,8.75
2022-09-23T11:05:34.923Z,7.45
2022-09-23T11:08:27.244Z,8.73
2022-09-23T11:11:19.117Z,9.57
2022-09-23T11:14:15.748Z,9.48
2022-09-23T11:16:53.889Z,9.30
2022-09-23T11:19:34.145Z,9.60
2022-09-23T11:22:26.024Z,8.27
2022-09-23T11:25:28.025Z,8.55
2022-09-23T11:28:15.693Z,9.13
2022-09-23T11:31:09.879Z,9.40
2022-09-23T11:33:52.693Z,9.00
2022-09-23T11:36:30.329Z,9.90
2022-09-23T11:39:01.143Z,10.75
2022-09-23T11:41:36.038Z,10.50
2022-09-23T11:44:21.134Z,11.70
2022-09-23T11:46:57.533Z,29.27
2022-09-23T11:49:36.617Z,23.02
2022-09-23T11:52:10.139Z,11.10
2022-09-23T11:54:56.738Z,15.02
2022-09-23T11:57:42.106Z,45.50
2022-09-23T12:00:24.177Z,54.78
2022-09-23T12:03:09.277Z,32.45
2022-09-23T12:06:12.523Z,56.03
2022-09-23T12:08:39.104Z,11.65
2022-09-23T12:11:22.003Z,10.43
2022-09-23T12:13:57.741Z,9.88
2022-09-23T12:16:44.246Z,10.20
2022-09-23T12:19:22.770Z,10.48
2022-09-23T12:22:08.249Z,9.90
2022-09-23T12:25:30.871Z,11.57
2022-09-23T12:28:03.614Z,12.43
2022-09-23T12:30:33.985Z,10.18
2022-09-23T12:33:22.378Z,19.02
2022-09-23T12:35:48.901Z,9.05
2022-09-23T12:38:22.852Z,8.70
2022-09-23T12:40:51.066Z,8.82
2022-09-23T12:43:29.728Z,8.85
2022-09-23T12:46:28.365Z,8.70
2022-09-23T12:48:57.958Z,25.77
2022-09-23T12:51:48.581Z,14.88
2022-09-23T12:54:22.722Z,40.97
2022-09-23T12:56:51.797Z,14.93
2022-09-23T12:59:30.405Z,11.43
2022-09-23T13:01:57.936Z,9.73
2022-09-23T13:04:53.115Z,26.65
2022-09-23T13:07:29.908Z,24.42
2022-09-23T13:10:05.661Z,9.57
2022-09-23T13:12:38.827Z,9.10
2022-09-23T13:15:16.541Z,9.55
2022-09-23T13:17:43.030Z,10.27
2022-09-23T13:20:21.503Z,14.50
2022-09-23T13:22:51.814Z,8.98
2022-09-23T13:25:32.506Z,7.90
2022-09-23T13:28:01.973Z,7.55
2022-09-23T13:30:28.514Z,11.63
2022-09-23T13:33:21.338Z,9.93
2022-09-23T13:35:55.926Z,8.50
2022-09-23T13:38:26.461Z,7.97
2022-09-23T13:40:59.895Z,8.27
2022-09-23T13:43:36.502Z,9.05
2022-09-23T13:46:14.053Z,8.70
2022-09-23T13:48:43.407Z,10.02
2022-09-23T13:51:12.162Z,10.07
2022-09-23T13:53:38.853Z,11.15
2022-09-23T13:56:15.745Z,9.57
2022-09-23T13:58:43.293Z,10.07
2022-09-23T14:01:22.077Z,17.55
2022-09-23T14:03:48.530Z,11.75
2022-09-23T14:06:16.291Z,10.90
2022-09-23T14:08:50.655Z,9.07
2022-09-23T14:11:19.098Z,8.75
2022-09-23T14:13:47.107Z,9.27
2022-09-23T14:16:15.993Z,8.95
2022-09-23T14:18:48.271Z,8.35
2022-09-23T14:21:35.653Z,9.02
2022-09-23T14:24:17.074Z,11.38
2022-09-23T14:26:48.340Z,8.85
2022-09-23T14:29:35.870Z,8.57
2022-09-23T14:32:07.559Z,9.88
2022-09-23T14:34:53.542Z,24.10
2022-09-23T14:37:56.851Z,8.30
2022-09-23T14:40:29.477Z,7.22
2022-09-23T14:43:04.754Z,8.07
2022-09-23T14:45:37.370Z,4.95
2022-09-23T14:48:22.731Z,11.35
2022-09-23T14:50:58.042Z,15.32
2022-09-23T14:53:51.860Z,5.47
2022-09-23T14:56:24.115Z,4.38
2022-09-23T14:58:59.715Z,5.63
2022-09-23T15:01:26.078Z,5.00
2022-09-23T15:03:53.359Z,4.38
2022-09-23T15:06:22.944Z,4.38
2022-09-23T15:08:50.986Z,4.55
2022-09-23T15:11:18.020Z,10.30
2022-09-23T15:13:49.317Z,22.63
2022-09-23T15:16:16.548Z,6.10
2022-09-23T15:18:45.951Z,7.93
2022-09-23T15:21:19.298Z,5.75
2022-09-23T15:23:54.207Z,4.68
2022-09-23T15:26:23.130Z,8.50
2022-09-23T15:28:51.951Z,6.07
2022-09-23T15:31:20.086Z,9.50
2022-09-23T15:33:47.911Z,5.63
2022-09-23T15:36:18.458Z,5.53
2022-09-23T15:38:46.056Z,9.68
2022-09-23T15:41:14.175Z,7.85
2022-09-23T15:43:44.209Z,5.38
2022-09-23T15:46:27.979Z,5.53
2022-09-23T15:49:05.305Z,5.85
2022-09-23T15:51:31.881Z,4.78
2022-09-23T15:53:58.452Z,7.68
2022-09-23T15:56:26.941Z,7.72
2022-09-23T15:58:53.309Z,6.07
2022-09-23T16:01:28.010Z,5.50
2022-09-23T16:03:55.582Z,9.32
2022-09-23T16:06:22.168Z,5.82
2022-09-23T16:08:49.167Z,6.13
2022-09-23T16:11:21.785Z,8.43
2022-09-23T16:13:48.131Z,5.25
2022-09-23T16:16:14.634Z,4.82
2022-09-23T16:18:43.692Z,13.98
2022-09-23T16:21:13.662Z,9.15
2022-09-23T16:23:43.613Z,7.53
2022-09-23T16:26:15.994Z,7.50
2022-09-23T16:28:43.834Z,6.93
2022-09-23T16:31:11.777Z,10.35
2022-09-23T16:33:38.514Z,11.50
2022-09-23T16:36:09.306Z,10.68
2022-09-23T16:38:35.818Z,11.43
2022-09-23T16:41:02.924Z,12.07
2022-09-23T16:43:39.203Z,11.00
2022-09-23T16:46:12.102Z,11.60
2022-09-23T16:48:40.766Z,11.10
2022-09-23T16:51:08.795Z,11.07
2022-09-23T16:53:35.961Z,11.25
2022-09-23T16:56:09.427Z,12.38
2022-09-23T16:58:37.372Z,11.18
2022-09-23T17:01:23.523Z,12.65
2022-09-23T17:03:50.305Z,12.25
2022-09-23T17:06:19.239Z,12.18
2022-09-23T17:08:51.019Z,12.02
2022-09-23T17:11:17.637Z,12.23
2022-09-23T17:13:44.495Z,10.55
2022-09-23T17:16:21.549Z,11.30
2022-09-23T17:18:47.982Z,11.65
2022-09-23T17:21:14.342Z,11.18
2022-09-23T17:23:41.150Z,13.38
2022-09-23T17:26:09.767Z,11.50
2022-09-23T17:28:36.328Z,13.30
2022-09-23T17:31:05.040Z,14.30
2022-09-23T17:33:33.318Z,12.23
2022-09-23T17:36:02.552Z,13.35
2022-09-23T17:38:29.666Z,15.77
2022-09-23T17:40:59.025Z,13.05
2022-09-23T17:43:25.748Z,12.88
2022-09-23T17:45:54.412Z,14.50
2022-09-23T17:48:22.297Z,13.65
2022-09-23T17:50:55.723Z,15.35
2022-09-23T17:53:23.003Z,15.38
2022-09-23T17:56:00.862Z,16.35
2022-09-23T17:58:29.407Z,21.77
2022-09-23T18:00:56.338Z,19.00
2022-09-23T18:03:27.427Z,20.00
2022-09-23T18:05:54.162Z,17.30
2022-09-23T18:08:21.031Z,18.67
2022-09-23T18:10:47.406Z,17.40
2022-09-23T18:13:13.799Z,13.95
2022-09-23T18:15:40.365Z,15.95
2022-09-23T18:18:07.146Z,15.07
2022-09-23T18:20:33.840Z,15.40
2022-09-23T18:23:00.171Z,14.95
2022-09-23T18:25:39.182Z,12.65
2022-09-23T18:28:06.268Z,13.48
2022-09-23T18:30:33.364Z,15.43
2022-09-23T18:32:59.891Z,17.40
2022-09-23T18:35:26.430Z,18.45
2022-09-23T18:37:52.785Z,21.58
2022-09-23T18:40:19.305Z,16.23
2022-09-23T18:42:45.668Z,19.60
2022-09-23T18:45:12.086Z,17.42
2022-09-23T18:47:56.871Z,22.38
2022-09-23T18:50:43.018Z,19.13
2022-09-23T18:53:10.332Z,15.85
2022-09-23T18:55:37.097Z,16.27
2022-09-23T18:58:03.684Z,13.98
2022-09-23T19:00:30.232Z,17.15
2022-09-23T19:02:56.718Z,20.02
2022-09-23T19:05:23.317Z,15.57
2022-09-23T19:07:49.695Z,15.20
2022-09-23T19:10:16.360Z,14.68
2022-09-23T19:12:42.677Z,13.57
2022-09-23T19:15:09.274Z,13.77
2022-09-23T19:17:35.713Z,15.82
2022-09-23T19:20:02.183Z,16.33
2022-09-23T19:22:30.326Z,16.55
2022-09-23T19:24:56.689Z,17.08
2022-09-23T19:27:23.389Z,19.63
2022-09-23T19:29:50.173Z,20.80
2022-09-23T19:32:16.657Z,14.52
2022-09-23T19:34:44.167Z,13.98
2022-09-23T19:37:10.507Z,16.52
2022-09-23T19:39:37.480Z,16.90
2022-09-23T19:42:03.955Z,18.75
2022-09-23T19:44:30.384Z,18.90
2022-09-23T19:46:57.561Z,20.88
2022-09-23T19:49:25.505Z,22.10
2022-09-23T19:51:55.001Z,22.17
2022-09-23T19:54:21.335Z,20.67
2022-09-23T19:56:49.562Z,19.95
2022-09-23T19:59:18.826Z,18.95
2022-09-23T20:01:47.668Z,18.55
2022-09-23T20:04:15.549Z,19.33
2022-09-23T20:06:41.918Z,167.85
2022-09-23T20:09:08.358Z,20.52
2022-09-23T20:11:35.848Z,21.67
2022-09-23T20:14:03.814Z,20.13
2022-09-23T20:16:33.215Z,18.83
2022-09-23T20:19:00.598Z,18.23
2022-09-23T20:21:28.982Z,18.92
2022-09-23T20:23:56.162Z,15.23
2022-09-23T20:26:41.361Z,14.23
2022-09-23T20:29:08.838Z,16.75
2022-09-23T20:31:35.367Z,15.20
2022-09-23T20:34:05.464Z,14.30
2022-09-23T20:36:32.899Z,15.45
2022-09-23T20:39:01.294Z,14.80
2022-09-23T20:41:29.723Z,15.48
2022-09-23T20:43:59.326Z,14.10
2022-09-23T20:46:27.072Z,14.20
2022-09-23T20:48:54.261Z,14.38
2022-09-23T20:51:20.870Z,15.52
2022-09-23T20:53:54.150Z,41.85
2022-09-23T20:56:21.263Z,22.85
2022-09-23T20:58:50.338Z,14.77
2022-09-23T21:01:17.224Z,14.50
2022-09-23T21:03:46.011Z,14.13
2022-09-23T21:06:14.515Z,16.08
2022-09-23T21:08:42.128Z,16.15
2022-09-23T21:11:14.854Z,17.38
2022-09-23T21:13:49.071Z,17.27
2022-09-23T21:16:17.146Z,17.05
2022-09-23T21:18:44.544Z,17.13
2022-09-23T21:21:12.148Z,16.02
2022-09-23T21:23:39.074Z,16.60
2022-09-23T21:26:13.729Z,14.57
2022-09-23T21:28:42.241Z,15.38
2022-09-23T21:31:11.705Z,15.98
2022-09-23T21:33:38.120Z,15.45
2022-09-23T21:36:06.877Z,16.30
2022-09-23T21:38:37.083Z,15.70
2022-09-23T21:41:07.419Z,17.25
2022-09-23T21:43:37.212Z,16.80
2022-09-23T21:46:06.188Z,16.98
2022-09-23T21:48:37.666Z,17.10
2022-09-23T21:51:07.727Z,17.88
2022-09-23T21:53:36.710Z,17.80
2022-09-23T21:56:20.694Z,18.92
2022-09-23T21:58:48.024Z,17.15
2022-09-23T22:01:15.845Z,19.40
2022-09-23T22:03:43.524Z,19.90
2022-09-23T22:06:15.083Z,20.02
2022-09-23T22:08:43.285Z,18.20
2022-09-23T22:11:31.314Z,17.85
2022-09-23T22:13:58.853Z,16.98
2022-09-23T22:16:26.111Z,16.63
2022-09-23T22:18:55.148Z,17.27
2022-09-23T22:21:23.017Z,17.25
2022-09-23T22:23:52.239Z,17.02
2022-09-23T22:26:18.585Z,16.48
2022-09-23T22:29:03.666Z,16.17
2022-09-23T22:31:48.436Z,15.57
2022-09-23T22:34:37.614Z,17.42
2022-09-23T22:37:01.710Z,17.67
2022-09-23T22:39:29.801Z,17.00
2022-09-23T22:41:58.322Z,17.17
2022-09-23T22:44:25.512Z,17.48
2022-09-23T22:46:51.990Z,17.48
2022-09-23T22:49:21.102Z,19.20
2022-09-23T22:51:47.485Z,17.77
2022-09-23T22:54:13.969Z,16.98
2022-09-23T22:56:40.329Z,17.38
2022-09-23T22:59:08.523Z,17.17
2022-09-23T23:01:35.439Z,17.75
2022-09-23T23:04:02.495Z,14.60
2022-09-23T23:06:35.775Z,15.68
2022-09-23T23:09:16.963Z,16.08
2022-09-23T23:11:44.812Z,15.30
2022-09-23T23:14:16.862Z,15.10
2022-09-23T23:16:45.101Z,15.60
2022-09-23T23:19:14.682Z,16.17
2022-09-23T23:21:44.663Z,17.42
2022-09-23T23:24:15.640Z,14.00
2022-09-23T23:26:42.471Z,12.25
2022-09-23T23:29:11.670Z,11.57
2022-09-23T23:31:38.475Z,11.82
2022-09-23T23:34:08.211Z,12.45
2022-09-23T23:36:34.673Z,12.25
2022-09-23T23:39:01.098Z,11.13
2022-09-23T23:41:28.299Z,12.13
2022-09-23T23:43:56.997Z,11.00
2022-09-23T23:46:26.324Z,10.60
2022-09-23T23:48:54.146Z,10.73
2022-09-23T23:51:21.190Z,11.35
2022-09-23T23:53:48.207Z,11.00
2022-09-23T23:56:19.550Z,11.18
